Kezdőlap
METAR-TAF:

METAR-TAF

Repülőterek :

Sable Island, Új-Skócia, Kanada

földrajzi szélesség: 43-56N, földrajzi hosszúság: 060-01W, magasság: 4 m

Jelenlegi meteorológiai megfigyelések

A jelentés 37 perccel ezelõtt készült, 08:04 UTC
Kelet-északkeleti szél 21 kt széllökések: 28 kt
Hőmérséklet 4°C
Páratartalom 100%
Légköri nyomás 1012 hPa
Szakadozott felhőzet 600 lábon
Borult 1100 lábon

METAR: CWSA 240804Z AUTO 07021G28KT BKN006 OVC011 04/04 A2989 RMK WX MISG VIS MISG SLP123

Idő: 05:41 (08:41 UTC)


TAF: hiányzik

Meteorológiai megfigyelések és előrejelzések több, mint 4000 repülőtéren (METAR és TAF jelentéseket).

A térképen piros és sárga pontok jelzik az elérhető meteorológiai állomásokat.

Mozgassa az egeret a pont fölött, hogy megjelenjen az állomás neve.

Azután kattintson az időjárási megfigyelések és előrejelzések megtekintéséhez.

A térkép megváltoztatása: kattintson a fekete keresztel jelölt zöld gombra ráközelítéshez, a vonallal jelölt zöld gombra távolításhoz, vagy a zöld nyilakra a szomszédos térképek eléréséhez.


METAR-TAF: